Observation data for Saint Lawrence on 08/14/2019      Previous  Date  Next       Current Mesonet Observations  Soil Data  Daily Summary Page  Observations in Plain Language
KST1 140500Z 32005KT 26/15 A3005 RMK A01 T02590148  RH  051%=      5-min Rain = 0
KST1 140505Z 31005KT 26/15 A3004 RMK A01 T02580148  RH  052%=      5-min Rain = 0
KST1 140510Z 29006KT 26/15 A3004 RMK A01 T02570148  RH  052%=      5-min Rain = 0
KST1 140515Z 28006KT 26/15 A3004 RMK A01 T02580148  RH  052%=      5-min Rain = 0
KST1 140520Z 28005KT 26/15 A3004 RMK A01 T02590149  RH  052%=      5-min Rain = 0
KST1 140525Z 33006KT 26/15 A3005 RMK A01 T02580149  RH  052%=      5-min Rain = 0
KST1 140530Z 35006KT 26/15 A3005 RMK A01 T02560147  RH  052%=      5-min Rain = 0
KST1 140535Z 02006KT 26/15 A3005 RMK A01 T02570148  RH  052%=      5-min Rain = 0
KST1 140540Z 01007KT 26/15 A3005 RMK A01 T02590151  RH  052%=      5-min Rain = 0
KST1 140545Z 01007KT 26/15 A3005 RMK A01 T02620151  RH  052%=      5-min Rain = 0
KST1 140550Z 00006KT 27/15 A3005 RMK A01 T02650152  RH  051%=      5-min Rain = 0
KST1 140555Z 00005KT 26/15 A3005 RMK A01 T02640152  RH  051%=      5-min Rain = 0
KST1 140600Z 01005KT 26/15 A3006 RMK A01 T02640152  RH  051%=      5-min Rain = 0
KST1 140605Z 00005KT 26/15 A3006 RMK A01 T02640152  RH  051%=      5-min Rain = 0
KST1 140610Z 00003KT 26/15 A3005 RMK A01 T02630153  RH  052%=      5-min Rain = 0
KST1 140615Z 01004KT 26/15 A3005 RMK A01 T02610152  RH  052%=      5-min Rain = 0
KST1 140620Z 02005KT 26/15 A3005 RMK A01 T02590151  RH  053%=      5-min Rain = 0
KST1 140625Z 02004KT 26/15 A3005 RMK A01 T02590152  RH  053%=      5-min Rain = 0
KST1 140630Z 02006KT 26/15 A3006 RMK A01 T02580153  RH  053%=      5-min Rain = 0
KST1 140635Z 01005KT 26/15 A3006 RMK A01 T02580153  RH  053%=      5-min Rain = 0
KST1 140640Z 01005KT 26/15 A3006 RMK A01 T02570152  RH  053%=      5-min Rain = 0
KST1 140645Z 02005KT 25/15 A3006 RMK A01 T02540151  RH  054%=      5-min Rain = 0
KST1 140650Z 01003KT 25/15 A3005 RMK A01 T02530151  RH  054%=      5-min Rain = 0
KST1 140655Z 01004KT 26/15 A3005 RMK A01 T02560152  RH  054%=      5-min Rain = 0
KST1 140700Z 01004KT 26/15 A3005 RMK A01 T02550150  RH  053%=      5-min Rain = 0
KST1 140705Z 34002KT 25/15 A3005 RMK A01 T02530150  RH  054%=      5-min Rain = 0
KST1 140710Z 35003KT 25/15 A3005 RMK A01 T02530149  RH  054%=      5-min Rain = 0
KST1 140715Z 33003KT 25/15 A3005 RMK A01 T02530151  RH  054%=      5-min Rain = 0
KST1 140720Z 32002KT 25/15 A3005 RMK A01 T02490150  RH  055%=      5-min Rain = 0
KST1 140725Z 31002KT 25/15 A3005 RMK A01 T02470146  RH  055%=      5-min Rain = 0
KST1 140730Z 29003KT 24/14 A3005 RMK A01 T02440144  RH  054%=      5-min Rain = 0
KST1 140735Z 24005KT 24/14 A3005 RMK A01 T02420144  RH  055%=      5-min Rain = 0
KST1 140740Z 22006KT 24/15 A3005 RMK A01 T02440147  RH  056%=      5-min Rain = 0
KST1 140745Z 22006KT 25/15 A3005 RMK A01 T02460150  RH  056%=      5-min Rain = 0
KST1 140750Z 22005KT 25/15 A3005 RMK A01 T02450150  RH  056%=      5-min Rain = 0
KST1 140755Z 23005KT 25/15 A3005 RMK A01 T02450150  RH  057%=      5-min Rain = 0
KST1 140800Z 24005KT 24/15 A3005 RMK A01 T02430149  RH  057%=      5-min Rain = 0
KST1 140805Z 25004KT 24/15 A3005 RMK A01 T02440149  RH  057%=      5-min Rain = 0
KST1 140810Z 25003KT 24/15 A3004 RMK A01 T02440149  RH  056%=      5-min Rain = 0
KST1 140815Z 26003KT 24/15 A3004 RMK A01 T02440148  RH  056%=      5-min Rain = 0
KST1 140820Z 29003KT 24/15 A3004 RMK A01 T02430149  RH  057%=      5-min Rain = 0
KST1 140825Z 31002KT 24/15 A3004 RMK A01 T02420148  RH  057%=      5-min Rain = 0
KST1 140830Z 31003KT 24/15 A3004 RMK A01 T02440150  RH  057%=      5-min Rain = 0
KST1 140835Z 30003KT 25/15 A3004 RMK A01 T02450150  RH  056%=      5-min Rain = 0
KST1 140840Z 30003KT 24/15 A3004 RMK A01 T02430149  RH  057%=      5-min Rain = 0
KST1 140845Z 31003KT 24/15 A3004 RMK A01 T02420149  RH  057%=      5-min Rain = 0
KST1 140850Z 32003KT 24/15 A3004 RMK A01 T02420148  RH  057%=      5-min Rain = 0
KST1 140855Z 32003KT 24/15 A3004 RMK A01 T02440148  RH  056%=      5-min Rain = 0
KST1 140900Z 34003KT 25/15 A3004 RMK A01 T02460149  RH  056%=      5-min Rain = 0
KST1 140905Z 35003KT 25/15 A3004 RMK A01 T02460149  RH  056%=      5-min Rain = 0
KST1 140910Z 00002KT 25/15 A3004 RMK A01 T02450148  RH  056%=      5-min Rain = 0
KST1 140915Z 01003KT 25/15 A3004 RMK A01 T02450148  RH  056%=      5-min Rain = 0
KST1 140920Z 02003KT 24/15 A3004 RMK A01 T02430149  RH  057%=      5-min Rain = 0
KST1 140925Z 03004KT 24/15 A3004 RMK A01 T02430149  RH  057%=      5-min Rain = 0
KST1 140930Z 04005KT 24/15 A3004 RMK A01 T02400147  RH  057%=      5-min Rain = 0
KST1 140935Z 05005KT 24/15 A3004 RMK A01 T02370149  RH  059%=      5-min Rain = 0
KST1 140940Z 07004KT 24/16 A3004 RMK A01 T02390156  RH  061%=      5-min Rain = 0
KST1 140945Z 07003KT 24/17 A3004 RMK A01 T02420165  RH  063%=      5-min Rain = 0
KST1 140950Z 05003KT 24/16 A3004 RMK A01 T02410163  RH  063%=      5-min Rain = 0
KST1 140955Z 05004KT 24/16 A3004 RMK A01 T02380158  RH  062%=      5-min Rain = 0
KST1 141000Z 04005KT 24/16 A3004 RMK A01 T02400157  RH  061%=      5-min Rain = 0
KST1 141005Z 03005KT 23/15 A3003 RMK A01 T02340152  RH  061%=      5-min Rain = 0
KST1 141010Z 03004KT 23/16 A3004 RMK A01 T02330156  RH  063%=      5-min Rain = 0
KST1 141015Z 02005KT 23/16 A3004 RMK A01 T02340160  RH  064%=      5-min Rain = 0
KST1 141020Z 03005KT 24/16 A3003 RMK A01 T02350162  RH  065%=      5-min Rain = 0
KST1 141025Z 03005KT 23/16 A3003 RMK A01 T02320161  RH  066%=      5-min Rain = 0
KST1 141030Z 03006KT 23/17 A3004 RMK A01 T02320167  RH  068%=      5-min Rain = 0
KST1 141035Z 04006KT 24/18 A3004 RMK A01 T02350175  RH  071%=      5-min Rain = 0
KST1 141040Z 04006KT 24/18 A3004 RMK A01 T02380180  RH  072%=      5-min Rain = 0
KST1 141045Z 03007KT 24/19 A3004 RMK A01 T02430185  RH  072%=      5-min Rain = 0
KST1 141050Z 03005KT 25/19 A3004 RMK A01 T02460186  RH  071%=      5-min Rain = 0
KST1 141055Z 03005KT 25/19 A3005 RMK A01 T02460185  RH  071%=      5-min Rain = 0
KST1 141100Z 03008KT 25/19 A3005 RMK A01 T02450186  RH  071%=      5-min Rain = 0
KST1 141105Z 02009KT 25/19 A3005 RMK A01 T02470188  RH  071%=      5-min Rain = 0
KST1 141110Z 03008KT 25/19 A3005 RMK A01 T02480189  RH  071%=      5-min Rain = 0
KST1 141115Z 04006KT 25/19 A3005 RMK A01 T02480189  RH  072%=      5-min Rain = 0
KST1 141120Z 04008KT 25/19 A3005 RMK A01 T02480190  RH  072%=      5-min Rain = 0
KST1 141125Z 04008KT 25/19 A3005 RMK A01 T02480191  RH  073%=      5-min Rain = 0
KST1 141130Z 04007KT 25/19 A3006 RMK A01 T02460190  RH  073%=      5-min Rain = 0
KST1 141135Z 05006KT 24/19 A3006 RMK A01 T02440189  RH  074%=      5-min Rain = 0
KST1 141140Z 04006KT 24/19 A3006 RMK A01 T02420189  RH  074%=      5-min Rain = 0
KST1 141145Z 04007KT 24/19 A3006 RMK A01 T02410189  RH  075%=      5-min Rain = 0
KST1 141150Z 05006KT 24/19 A3007 RMK A01 T02390189  RH  075%=      5-min Rain = 0
KST1 141155Z 05005KT 24/19 A3007 RMK A01 T02380188  RH  076%=      5-min Rain = 0
KST1 141200Z 07004KT 24/19 A3007 RMK A01 T02370188  RH  076%=      5-min Rain = 0
KST1 141205Z 07004KT 24/19 A3008 RMK A01 T02370188  RH  076%=      5-min Rain = 0
KST1 141210Z 07003KT 24/19 A3008 RMK A01 T02370188  RH  076%=      5-min Rain = 0
KST1 141215Z 08002KT 24/19 A3008 RMK A01 T02360188  RH  076%=      5-min Rain = 0
KST1 141220Z 11002KT 23/19 A3008 RMK A01 T02340187  RH  077%=      5-min Rain = 0
KST1 141225Z 10001KT 23/19 A3008 RMK A01 T02330187  RH  077%=      5-min Rain = 0
KST1 141230Z 10001KT 23/19 A3008 RMK A01 T02340188  RH  078%=      5-min Rain = 0
KST1 141235Z 08002KT 23/19 A3008 RMK A01 T02330187  RH  077%=      5-min Rain = 0
KST1 141240Z 05001KT 23/19 A3009 RMK A01 T02320187  RH  078%=      5-min Rain = 0
KST1 141245Z 05000KT 23/18 A3009 RMK A01 T02260175  RH  075%=      5-min Rain = 0
KST1 141250Z 01001KT 23/17 A3009 RMK A01 T02250173  RH  074%=      5-min Rain = 0
KST1 141255Z 35001KT 23/18 A3009 RMK A01 T02260175  RH  075%=      5-min Rain = 0
KST1 141300Z 04004KT 23/19 A3009 RMK A01 T02320185  RH  077%=      5-min Rain = 0
KST1 141305Z 04006KT 24/20 A301 RMK A01 T02420195  RH  077%=      5-min Rain = 0
KST1 141310Z 04006KT 25/20 A3009 RMK A01 T02460197  RH  076%=      5-min Rain = 0
KST1 141315Z 04008KT 25/20 A301 RMK A01 T02480197  RH  075%=      5-min Rain = 0
KST1 141320Z 04010KT 25/20 A301 RMK A01 T02490198  RH  075%=      5-min Rain = 0
KST1 141325Z 03010KT 25/20 A301 RMK A01 T02510198  RH  074%=      5-min Rain = 0
KST1 141330Z 04009KT 25/20 A3011 RMK A01 T02510198  RH  074%=      5-min Rain = 0
KST1 141335Z 04011KT 25/20 A3011 RMK A01 T02530197  RH  073%=      5-min Rain = 0
KST1 141340Z 04010KT 26/20 A3011 RMK A01 T02550197  RH  072%=      5-min Rain = 0
KST1 141345Z 04010KT 26/20 A3011 RMK A01 T02570197  RH  072%=      5-min Rain = 0
KST1 141350Z 04008KT 26/20 A3011 RMK A01 T02600198  RH  070%=      5-min Rain = 0
KST1 141355Z 04010KT 26/20 A3011 RMK A01 T02610197  RH  070%=      5-min Rain = 0
KST1 141400Z 04009KT 26/20 A3011 RMK A01 T02600197  RH  070%=      5-min Rain = 0
KST1 141405Z 05009KT 26/20 A3011 RMK A01 T02610197  RH  070%=      5-min Rain = 0
KST1 141410Z 04009KT 26/20 A3012 RMK A01 T02640197  RH  068%=      5-min Rain = 0
KST1 141415Z 04009KT 27/20 A3012 RMK A01 T02670197  RH  067%=      5-min Rain = 0
KST1 141420Z 04009KT 27/20 A3012 RMK A01 T02670196  RH  067%=      5-min Rain = 0
KST1 141425Z 03009KT 27/20 A3012 RMK A01 T02680196  RH  066%=      5-min Rain = 0
KST1 141430Z 03012KT 27/20 A3013 RMK A01 T02690196  RH  066%=      5-min Rain = 0
KST1 141435Z 04011G17KT 27/20 A3013 RMK A01 T02670195  RH  066%=      5-min Rain = 0
KST1 141440Z 03010G15KT 27/20 A3013 RMK A01 T02700196  RH  066%=      5-min Rain = 0
KST1 141445Z 03011KT 27/20 A3014 RMK A01 T02680195  RH  066%=      5-min Rain = 0
KST1 141450Z 04010KT 27/20 A3014 RMK A01 T02690195  RH  066%=      5-min Rain = 0
KST1 141455Z 03010KT 27/20 A3014 RMK A01 T02700196  RH  066%=      5-min Rain = 0
KST1 141500Z 03011KT 27/20 A3015 RMK A01 T02710195  RH  065%=      5-min Rain = 0
KST1 141505Z 04009KT 27/20 A3014 RMK A01 T02710195  RH  065%=      5-min Rain = 0
KST1 141510Z 04010KT 27/20 A3015 RMK A01 T02730195  RH  064%=      5-min Rain = 0
KST1 141515Z 04011KT 27/19 A3015 RMK A01 T02720194  RH  064%=      5-min Rain = 0
KST1 141520Z 04011KT 27/19 A3015 RMK A01 T02710193  RH  064%=      5-min Rain = 0
KST1 141525Z 03010KT 27/19 A3015 RMK A01 T02720194  RH  064%=      5-min Rain = 0
KST1 141530Z 04012KT 28/19 A3015 RMK A01 T02750194  RH  063%=      5-min Rain = 0
KST1 141535Z 03011KT 28/19 A3015 RMK A01 T02750194  RH  063%=      5-min Rain = 0
KST1 141540Z 03012KT 28/19 A3016 RMK A01 T02750193  RH  063%=      5-min Rain = 0
KST1 141545Z 04011KT 28/19 A3015 RMK A01 T02760193  RH  062%=      5-min Rain = 0
KST1 141550Z 02012KT 28/19 A3016 RMK A01 T02770194  RH  062%=      5-min Rain = 0
KST1 141555Z 03011KT 28/19 A3016 RMK A01 T02770193  RH  062%=      5-min Rain = 0
KST1 141600Z 03011KT 28/19 A3016 RMK A01 T02820193  RH  060%=      5-min Rain = 0
KST1 141605Z 03011KT 28/19 A3016 RMK A01 T02820193  RH  060%=      5-min Rain = 0
KST1 141610Z 02011G18KT 28/19 A3016 RMK A01 T02820194  RH  060%=      5-min Rain = 0
KST1 141615Z 02013G20KT 29/19 A3017 RMK A01 T02870194  RH  059%=      5-min Rain = 0
KST1 141620Z 03014KT 29/19 A3017 RMK A01 T02850194  RH  060%=      5-min Rain = 0
KST1 141625Z 03013KT 29/19 A3017 RMK A01 T02870194  RH  059%=      5-min Rain = 0
KST1 141630Z 03011G16KT 29/19 A3017 RMK A01 T02870194  RH  059%=      5-min Rain = 0
KST1 141635Z 04012G17KT 29/19 A3017 RMK A01 T02880192  RH  057%=      5-min Rain = 0
KST1 141640Z 03012G17KT 29/19 A3017 RMK A01 T02930192  RH  056%=      5-min Rain = 0
KST1 141645Z 04012G17KT 30/19 A3017 RMK A01 T02970192  RH  055%=      5-min Rain = 0
KST1 141650Z 03013G18KT 30/19 A3016 RMK A01 T02980192  RH  054%=      5-min Rain = 0
KST1 141655Z 04013G18KT 30/19 A3016 RMK A01 T03000191  RH  054%=      5-min Rain = 0
KST1 141700Z 03013G18KT 30/19 A3016 RMK A01 T02990191  RH  054%=      5-min Rain = 0
KST1 141705Z 04009G14KT 30/19 A3016 RMK A01 T02980190  RH  054%=      5-min Rain = 0
KST1 141710Z 03013G18KT 30/19 A3016 RMK A01 T03030192  RH  053%=      5-min Rain = 0
KST1 141715Z 03013KT 30/19 A3016 RMK A01 T03040192  RH  052%=      5-min Rain = 0
KST1 141720Z 04012G17KT 30/19 A3016 RMK A01 T03040191  RH  052%=      5-min Rain = 0
KST1 141725Z 03012G19KT 31/19 A3016 RMK A01 T03070191  RH  051%=      5-min Rain = 0
KST1 141730Z 03012G18KT 31/19 A3016 RMK A01 T03070188  RH  050%=      5-min Rain = 0
KST1 141735Z 03013KT 31/19 A3016 RMK A01 T03080188  RH  050%=      5-min Rain = 0
KST1 141740Z 04012G17KT 31/19 A3015 RMK A01 T03120191  RH  050%=      5-min Rain = 0
KST1 141745Z 02015KT 31/19 A3015 RMK A01 T03100189  RH  050%=      5-min Rain = 0
KST1 141750Z 03012G19KT 31/19 A3015 RMK A01 T03100190  RH  050%=      5-min Rain = 0
KST1 141755Z 04014G19KT 32/19 A3015 RMK A01 T03150187  RH  048%=      5-min Rain = 0
KST1 141800Z 03012G17KT 31/19 A3015 RMK A01 T03130188  RH  048%=      5-min Rain = 0
KST1 141805Z 03013G18KT 31/19 A3015 RMK A01 T03110187  RH  049%=      5-min Rain = 0
KST1 141810Z 04012G18KT 32/19 A3014 RMK A01 T03160187  RH  047%=      5-min Rain = 0
KST1 141815Z 05011G16KT 31/19 A3014 RMK A01 T03130188  RH  048%=      5-min Rain = 0
KST1 141820Z 06011G17KT 32/19 A3013 RMK A01 T03180186  RH  047%=      5-min Rain = 0
KST1 141825Z 02012KT 32/19 A3013 RMK A01 T03160186  RH  047%=      5-min Rain = 0
KST1 141830Z 03012KT 32/19 A3013 RMK A01 T03170185  RH  047%=      5-min Rain = 0
KST1 141835Z 03013G20KT 32/18 A3013 RMK A01 T03180184  RH  046%=      5-min Rain = 0
KST1 141840Z 04013G19KT 32/18 A3013 RMK A01 T03180183  RH  046%=      5-min Rain = 0
KST1 141845Z 04014G20KT 32/18 A3013 RMK A01 T03230184  RH  045%=      5-min Rain = 0
KST1 141850Z 04014KT 32/18 A3013 RMK A01 T03230183  RH  045%=      5-min Rain = 0
KST1 141855Z 04010KT 32/18 A3013 RMK A01 T03230183  RH  045%=      5-min Rain = 0
KST1 141900Z 04012G17KT 32/18 A3012 RMK A01 T03240182  RH  044%=      5-min Rain = 0
KST1 141905Z 06012KT 33/18 A3012 RMK A01 T03270181  RH  043%=      5-min Rain = 0
KST1 141910Z 04014G19KT 33/18 A3011 RMK A01 T03300179  RH  042%=      5-min Rain = 0
KST1 141915Z 03014KT 33/18 A3011 RMK A01 T03280179  RH  042%=      5-min Rain = 0
KST1 141920Z 05013KT 33/18 A3011 RMK A01 T03340179  RH  041%=      5-min Rain = 0
KST1 141925Z 05014G21KT 34/18 A301 RMK A01 T03360176  RH  040%=      5-min Rain = 0
KST1 141930Z 05015G20KT 33/18 A301 RMK A01 T03320176  RH  040%=      5-min Rain = 0
KST1 141935Z 03015KT 33/17 A3009 RMK A01 T03330174  RH  040%=      5-min Rain = 0
KST1 141940Z 04014KT 34/18 A3009 RMK A01 T03370175  RH  039%=      5-min Rain = 0
KST1 141945Z 03014G20KT 34/17 A3009 RMK A01 T03360174  RH  039%=      5-min Rain = 0
KST1 141950Z 04016G21KT 34/17 A3008 RMK A01 T03360171  RH  038%=      5-min Rain = 0
KST1 141955Z 04014KT 34/17 A3008 RMK A01 T03400171  RH  037%=      5-min Rain = 0
KST1 142000Z 04013G18KT 34/17 A3008 RMK A01 T03380172  RH  038%=      5-min Rain = 0
KST1 142005Z 04014G22KT 35/17 A3007 RMK A01 T03460174  RH  037%=      5-min Rain = 0
KST1 142010Z 04016G23KT 34/17 A3007 RMK A01 T03430172  RH  037%=      5-min Rain = 0
KST1 142015Z 04015G22KT 34/17 A3007 RMK A01 T03410171  RH  037%=      5-min Rain = 0
KST1 142020Z 06012G19KT 34/17 A3007 RMK A01 T03440173  RH  037%=      5-min Rain = 0
KST1 142025Z 04013G19KT 35/17 A3006 RMK A01 T03490173  RH  036%=      5-min Rain = 0
KST1 142030Z 04013G18KT 35/17 A3006 RMK A01 T03500172  RH  036%=      5-min Rain = 0
KST1 142035Z 04014KT 35/17 A3006 RMK A01 T03490172  RH  036%=      5-min Rain = 0
KST1 142040Z 03014G22KT 35/17 A3006 RMK A01 T03470173  RH  037%=      5-min Rain = 0
KST1 142045Z 06014G22KT 35/17 A3006 RMK A01 T03510172  RH  035%=      5-min Rain = 0
KST1 142050Z 04014G19KT 35/17 A3006 RMK A01 T03480170  RH  035%=      5-min Rain = 0
KST1 142055Z 04012G20KT 35/17 A3006 RMK A01 T03490170  RH  035%=      5-min Rain = 0
KST1 142100Z 05012G19KT 35/17 A3006 RMK A01 T03510170  RH  035%=      5-min Rain = 0
KST1 142105Z 04014G21KT 35/17 A3006 RMK A01 T03490169  RH  035%=      5-min Rain = 0
KST1 142110Z 06012G19KT 36/17 A3005 RMK A01 T03550169  RH  034%=      5-min Rain = 0
KST1 142115Z 05009KT 36/17 A3005 RMK A01 T03560169  RH  034%=      5-min Rain = 0
KST1 142120Z 04010G17KT 35/17 A3005 RMK A01 T03520165  RH  034%=      5-min Rain = 0
KST1 142125Z 04011G16KT 35/17 A3005 RMK A01 T03520167  RH  034%=      5-min Rain = 0
KST1 142130Z 03013G18KT 35/17 A3005 RMK A01 T03530165  RH  034%=      5-min Rain = 0
KST1 142135Z 04008G13KT 35/17 A3005 RMK A01 T03530165  RH  034%=      5-min Rain = 0
KST1 142140Z 04012G19KT 36/17 A3005 RMK A01 T03620166  RH  032%=      5-min Rain = 0
KST1 142145Z 04008KT 36/17 A3005 RMK A01 T03550167  RH  034%=      5-min Rain = 0
KST1 142150Z 05008G14KT 36/17 A3005 RMK A01 T03610167  RH  033%=      5-min Rain = 0
KST1 142155Z 08008G13KT 35/16 A3005 RMK A01 T03520164  RH  034%=      5-min Rain = 0
KST1 142200Z 08007G12KT 35/17 A3005 RMK A01 T03530165  RH  034%=      5-min Rain = 0
KST1 142205Z 07008G14KT 35/16 A3005 RMK A01 T03500164  RH  034%=      5-min Rain = 0
KST1 142210Z 08006KT 35/16 A3005 RMK A01 T03470162  RH  034%=      5-min Rain = 0
KST1 142215Z 07007KT 35/16 A3005 RMK A01 T03490163  RH  034%=      5-min Rain = 0
KST1 142220Z 10009KT 35/17 A3004 RMK A01 T03490165  RH  034%=      5-min Rain = 0
KST1 142225Z 08009G14KT 35/16 A3004 RMK A01 T03480164  RH  034%=      5-min Rain = 0
KST1 142230Z 10008G13KT 35/17 A3004 RMK A01 T03470165  RH  035%=      5-min Rain = 0
KST1 142235Z 09007KT 35/17 A3004 RMK A01 T03470166  RH  035%=      5-min Rain = 0
KST1 142240Z 05007KT 35/16 A3004 RMK A01 T03540163  RH  033%=      5-min Rain = 0
KST1 142245Z 08007KT 36/16 A3004 RMK A01 T03550161  RH  032%=      5-min Rain = 0
KST1 142250Z 09008KT 35/16 A3004 RMK A01 T03510163  RH  033%=      5-min Rain = 0
KST1 142255Z 09007KT 35/16 A3004 RMK A01 T03480160  RH  033%=      5-min Rain = 0
KST1 142300Z 06006KT 35/16 A3004 RMK A01 T03510157  RH  032%=      5-min Rain = 0
KST1 142305Z 06008KT 35/16 A3004 RMK A01 T03490156  RH  032%=      5-min Rain = 0
KST1 142310Z 19014G21KT 32/17 A3005 RMK A01 T03230172  RH  041%=      5-min Rain = 0
KST1 142315Z 19016G22KT 31/17 A3004 RMK A01 T03120173  RH  044%=      5-min Rain = 0
KST1 142320Z 19015KT 31/17 A3004 RMK A01 T03080174  RH  046%=      5-min Rain = 0
KST1 142325Z 19015G21KT 31/18 A3004 RMK A01 T03060176  RH  047%=      5-min Rain = 0
KST1 142330Z 20014G20KT 30/18 A3004 RMK A01 T03000175  RH  048%=      5-min Rain = 0
KST1 142335Z 20013G19KT 30/17 A3004 RMK A01 T03000173  RH  047%=      5-min Rain = 0
KST1 142340Z 21014KT 30/17 A3003 RMK A01 T03010172  RH  047%=      5-min Rain = 0
KST1 142345Z 20013KT 30/17 A3003 RMK A01 T02990173  RH  048%=      5-min Rain = 0
KST1 142350Z 20011G18KT 30/18 A3003 RMK A01 T03010175  RH  048%=      5-min Rain = 0
KST1 142355Z 21011KT 30/18 A3003 RMK A01 T03040176  RH  048%=      5-min Rain = 0
KST1 150000Z 20011G16KT 30/18 A3003 RMK A01 T03030177  RH  048%=      5-min Rain = 0
KST1 150005Z 21012KT 30/18 A3003 RMK A01 T03030177  RH  048%=      5-min Rain = 0
KST1 150010Z 21012KT 30/18 A3003 RMK A01 T03020176  RH  048%=      5-min Rain = 0
KST1 150015Z 20010G15KT 30/18 A3004 RMK A01 T02990176  RH  049%=      5-min Rain = 0
KST1 150020Z 20011KT 30/17 A3004 RMK A01 T02990173  RH  048%=      5-min Rain = 0
KST1 150025Z 19011KT 30/17 A3003 RMK A01 T02970173  RH  048%=      5-min Rain = 0
KST1 150030Z 19010KT 30/17 A3003 RMK A01 T02960172  RH  048%=      5-min Rain = 0
KST1 150035Z 19008KT 30/17 A3003 RMK A01 T02960172  RH  048%=      5-min Rain = 0
KST1 150040Z 20007KT 30/17 A3003 RMK A01 T02970172  RH  048%=      5-min Rain = 0
KST1 150045Z 20006KT 30/17 A3004 RMK A01 T02970172  RH  048%=      5-min Rain = 0
KST1 150050Z 20008KT 30/17 A3004 RMK A01 T02960170  RH  048%=      5-min Rain = 0
KST1 150055Z 21009KT 29/17 A3004 RMK A01 T02940169  RH  048%=      5-min Rain = 0
KST1 150100Z 21007KT 30/17 A3004 RMK A01 T02950169  RH  048%=      5-min Rain = 0
KST1 150105Z 21007KT 29/17 A3005 RMK A01 T02930170  RH  048%=      5-min Rain = 0
KST1 150110Z 20008KT 29/17 A3005 RMK A01 T02930169  RH  048%=      5-min Rain = 0
KST1 150115Z 20008KT 29/17 A3005 RMK A01 T02930169  RH  048%=      5-min Rain = 0
KST1 150120Z 21007KT 29/17 A3006 RMK A01 T02930169  RH  048%=      5-min Rain = 0
KST1 150125Z 22008KT 29/17 A3005 RMK A01 T02920168  RH  048%=      5-min Rain = 0
KST1 150130Z 21008KT 29/17 A3006 RMK A01 T02900166  RH  048%=      5-min Rain = 0
KST1 150135Z 21009KT 29/16 A3006 RMK A01 T02890164  RH  048%=      5-min Rain = 0
KST1 150140Z 20007KT 29/16 A3006 RMK A01 T02880162  RH  047%=      5-min Rain = 0
KST1 150145Z 21008KT 29/16 A3006 RMK A01 T02870161  RH  047%=      5-min Rain = 0
KST1 150150Z 20006KT 29/16 A3006 RMK A01 T02860161  RH  048%=      5-min Rain = 0
KST1 150155Z 20005KT 29/16 A3006 RMK A01 T02850162  RH  048%=      5-min Rain = 0
KST1 150200Z 21005KT 28/16 A3007 RMK A01 T02840161  RH  048%=      5-min Rain = 0
KST1 150205Z 22007KT 28/16 A3007 RMK A01 T02830160  RH  048%=      5-min Rain = 0
KST1 150210Z 21007KT 28/16 A3007 RMK A01 T02830159  RH  048%=      5-min Rain = 0
KST1 150215Z 21006KT 28/16 A3008 RMK A01 T02830158  RH  048%=      5-min Rain = 0
KST1 150220Z 20005KT 28/16 A3008 RMK A01 T02820159  RH  048%=      5-min Rain = 0
KST1 150225Z 21004KT 28/16 A3009 RMK A01 T02810158  RH  048%=      5-min Rain = 0
KST1 150230Z 21004KT 28/16 A3009 RMK A01 T02810158  RH  048%=      5-min Rain = 0
KST1 150235Z 21004KT 28/16 A3009 RMK A01 T02800158  RH  048%=      5-min Rain = 0
KST1 150240Z 21004KT 28/16 A3009 RMK A01 T02800158  RH  048%=      5-min Rain = 0
KST1 150245Z 22004KT 28/16 A3009 RMK A01 T02790157  RH  049%=      5-min Rain = 0
KST1 150250Z 23004KT 28/16 A301 RMK A01 T02780157  RH  049%=      5-min Rain = 0
KST1 150255Z 24004KT 28/16 A301 RMK A01 T02770157  RH  049%=      5-min Rain = 0
KST1 150300Z 27003KT 28/16 A301 RMK A01 T02750156  RH  049%=      5-min Rain = 0
KST1 150305Z 28002KT 27/16 A301 RMK A01 T02740156  RH  050%=      5-min Rain = 0
KST1 150310Z 28002KT 27/16 A3011 RMK A01 T02730157  RH  050%=      5-min Rain = 0
KST1 150315Z 30002KT 27/16 A3011 RMK A01 T02730156  RH  050%=      5-min Rain = 0
KST1 150320Z 30003KT 27/16 A3011 RMK A01 T02730157  RH  050%=      5-min Rain = 0
KST1 150325Z 30002KT 27/16 A3011 RMK A01 T02710156  RH  051%=      5-min Rain = 0
KST1 150330Z 31002KT 27/16 A3011 RMK A01 T02690156  RH  051%=      5-min Rain = 0
KST1 150335Z 30000KT 27/15 A3011 RMK A01 T02670154  RH  051%=      5-min Rain = 0
KST1 150340Z 00000KT 26/15 A3011 RMK A01 T02630154  RH  052%=      5-min Rain = 0
KST1 150345Z 36001KT 26/16 A3012 RMK A01 T02620155  RH  053%=      5-min Rain = 0
KST1 150350Z 02003KT 26/15 A3012 RMK A01 T02600152  RH  053%=      5-min Rain = 0
KST1 150355Z 02003KT 26/15 A3012 RMK A01 T02590152  RH  053%=      5-min Rain = 0
KST1 150400Z 02003KT 26/15 A3012 RMK A01 T02590153  RH  053%=      5-min Rain = 0
KST1 150405Z 04003KT 26/15 A3012 RMK A01 T02600154  RH  053%=      5-min Rain = 0
KST1 150410Z 05003KT 26/16 A3012 RMK A01 T02630155  RH  053%=      5-min Rain = 0
KST1 150415Z 08002KT 26/15 A3012 RMK A01 T02610154  RH  053%=      5-min Rain = 0
KST1 150420Z 09001KT 26/15 A3011 RMK A01 T02580152  RH  053%=      5-min Rain = 0
KST1 150425Z 11001KT 26/15 A3012 RMK A01 T02620153  RH  052%=      5-min Rain = 0
KST1 150430Z 12001KT 26/15 A3012 RMK A01 T02640152  RH  051%=      5-min Rain = 0
KST1 150435Z 10002KT 26/15 A3012 RMK A01 T02620151  RH  051%=      5-min Rain = 0
KST1 150440Z 12004KT 26/15 A3012 RMK A01 T02560151  RH  053%=      5-min Rain = 0
KST1 150445Z 11004KT 25/15 A3012 RMK A01 T02540151  RH  054%=      5-min Rain = 0
KST1 150450Z 11004KT 25/15 A3012 RMK A01 T02540152  RH  054%=      5-min Rain = 0
KST1 150455Z 12005KT 25/15 A3012 RMK A01 T02510151  RH  055%=      5-min Rain = 0

Page generated in 0.0088 seconds.